createdAt,value
2022-09-11T00:01:23.130Z,6.37
2022-09-11T00:03:49.645Z,6.27
2022-09-11T00:06:28.568Z,6.53
2022-09-11T00:09:00.420Z,5.70
2022-09-11T00:11:28.592Z,6.23
2022-09-11T00:13:56.464Z,5.40
2022-09-11T00:16:30.952Z,6.30
2022-09-11T00:18:59.259Z,5.83
2022-09-11T00:21:25.856Z,5.33
2022-09-11T00:23:53.179Z,5.97
2022-09-11T00:26:20.304Z,5.63
2022-09-11T00:28:46.981Z,5.00
2022-09-11T00:31:14.814Z,6.30
2022-09-11T00:33:42.122Z,5.90
2022-09-11T00:36:12.222Z,5.97
2022-09-11T00:38:39.052Z,5.70
2022-09-11T00:41:07.680Z,5.60
2022-09-11T00:43:55.330Z,5.67
2022-09-11T00:46:23.102Z,6.17
2022-09-11T00:48:50.016Z,4.97
2022-09-11T00:51:23.095Z,6.03
2022-09-11T00:53:49.937Z,6.10
2022-09-11T00:56:16.402Z,6.13
2022-09-11T00:58:44.203Z,5.60
2022-09-11T01:01:10.730Z,6.17
2022-09-11T01:03:37.196Z,5.83
2022-09-11T01:06:04.513Z,5.33
2022-09-11T01:08:31.562Z,5.83
2022-09-11T01:11:05.954Z,5.50
2022-09-11T01:13:33.162Z,6.50
2022-09-11T01:16:18.306Z,6.03
2022-09-11T01:18:57.916Z,5.43
2022-09-11T01:21:42.820Z,5.23
2022-09-11T01:24:12.346Z,5.40
2022-09-11T01:27:02.183Z,5.10
2022-09-11T01:29:55.372Z,4.67
2022-09-11T01:32:21.814Z,5.43
2022-09-11T01:34:51.256Z,4.87
2022-09-11T01:37:24.517Z,5.60
2022-09-11T01:39:54.289Z,5.57
2022-09-11T01:42:23.130Z,4.83
2022-09-11T01:44:57.602Z,4.20
2022-09-11T01:47:24.264Z,3.87
2022-09-11T01:49:59.123Z,4.93
2022-09-11T01:52:28.664Z,4.03
2022-09-11T01:54:59.785Z,4.20
2022-09-11T01:57:52.249Z,3.43
2022-09-11T02:00:18.883Z,4.13
2022-09-11T02:02:48.234Z,4.07
2022-09-11T02:05:23.593Z,4.57
2022-09-11T02:07:53.427Z,3.87
2022-09-11T02:10:25.828Z,4.17
2022-09-11T02:12:59.093Z,4.27
2022-09-11T02:15:31.600Z,4.03
2022-09-11T02:18:02.029Z,3.77
2022-09-11T02:20:28.849Z,3.87
2022-09-11T02:22:55.465Z,4.10
2022-09-11T02:25:21.959Z,3.40
2022-09-11T02:27:48.374Z,3.70
2022-09-11T02:30:14.943Z,3.57
2022-09-11T02:32:43.442Z,4.07
2022-09-11T02:35:10.356Z,4.37
2022-09-11T02:37:49.419Z,3.40
2022-09-11T02:40:27.327Z,4.37
2022-09-11T02:42:54.289Z,4.07
2022-09-11T02:45:37.952Z,3.83
2022-09-11T02:48:07.497Z,3.90
2022-09-11T02:50:38.168Z,4.47
2022-09-11T02:53:10.704Z,4.27
2022-09-11T02:55:56.685Z,4.83
2022-09-11T02:58:26.977Z,4.73
2022-09-11T03:00:56.335Z,4.80
2022-09-11T03:03:22.886Z,4.67
2022-09-11T03:05:49.374Z,4.60
2022-09-11T03:08:17.240Z,4.67
2022-09-11T03:10:46.664Z,4.40
2022-09-11T03:13:14.842Z,4.10
2022-09-11T03:15:43.582Z,4.80
2022-09-11T03:18:11.605Z,5.30
2022-09-11T03:20:38.934Z,4.97
2022-09-11T03:23:10.737Z,4.23
2022-09-11T03:25:37.198Z,4.67
2022-09-11T03:28:04.688Z,4.60
2022-09-11T03:30:31.264Z,3.93
2022-09-11T03:32:58.535Z,4.37
2022-09-11T03:35:25.380Z,4.23
2022-09-11T03:37:51.903Z,4.43
2022-09-11T03:40:20.202Z,4.43
2022-09-11T03:42:46.672Z,4.37
2022-09-11T03:45:14.335Z,4.63
2022-09-11T03:47:41.291Z,3.67
2022-09-11T03:50:08.660Z,4.83
2022-09-11T03:52:36.181Z,4.10
2022-09-11T03:55:03.712Z,4.30
2022-09-11T03:57:32.824Z,3.90
2022-09-11T03:59:59.281Z,3.70
2022-09-11T04:02:25.687Z,4.20
2022-09-11T04:04:52.157Z,3.77
2022-09-11T04:07:18.604Z,4.03
2022-09-11T04:09:46.489Z,4.00
2022-09-11T04:12:12.996Z,3.73
2022-09-11T04:14:39.423Z,4.73
2022-09-11T04:17:08.100Z,4.40
2022-09-11T04:19:35.010Z,4.27
2022-09-11T04:22:01.436Z,4.73
2022-09-11T04:24:27.869Z,4.00
2022-09-11T04:26:58.616Z,3.67
2022-09-11T04:29:27.488Z,3.47
2022-09-11T04:31:53.962Z,4.00
2022-09-11T04:34:20.481Z,3.57
2022-09-11T04:36:47.002Z,3.10
2022-09-11T04:39:13.482Z,3.23
2022-09-11T04:41:39.912Z,3.50
2022-09-11T04:44:06.385Z,3.07
2022-09-11T04:46:33.380Z,3.67
2022-09-11T04:48:59.836Z,3.25
2022-09-11T04:51:30.867Z,3.83
2022-09-11T04:53:57.921Z,3.53
2022-09-11T04:56:25.851Z,3.33
2022-09-11T04:58:55.955Z,3.77
2022-09-11T05:01:22.938Z,3.63
2022-09-11T05:03:49.531Z,3.13
2022-09-11T05:06:16.519Z,3.67
2022-09-11T05:08:46.530Z,3.33
2022-09-11T05:11:13.797Z,3.47
2022-09-11T05:13:40.799Z,3.90
2022-09-11T05:16:11.227Z,3.23
2022-09-11T05:18:38.847Z,3.53
2022-09-11T05:21:06.352Z,3.33
2022-09-11T05:23:33.050Z,3.10
2022-09-11T05:26:00.384Z,3.60
2022-09-11T05:28:27.066Z,3.53
2022-09-11T05:30:54.586Z,2.93
2022-09-11T05:33:24.800Z,3.70
2022-09-11T05:35:54.781Z,3.30
2022-09-11T05:38:21.900Z,4.00
2022-09-11T05:40:49.886Z,3.53
2022-09-11T05:43:17.138Z,3.30
2022-09-11T05:45:44.256Z,3.13
2022-09-11T05:48:10.703Z,3.30
2022-09-11T05:50:37.513Z,3.20
2022-09-11T05:53:05.583Z,2.83
2022-09-11T05:55:35.603Z,3.40
2022-09-11T05:58:02.664Z,3.23
2022-09-11T06:00:30.464Z,3.50
2022-09-11T06:02:58.289Z,3.07
2022-09-11T06:05:24.701Z,3.43
2022-09-11T06:07:51.245Z,3.00
2022-09-11T06:10:17.942Z,3.77
2022-09-11T06:12:44.352Z,3.10
2022-09-11T06:15:24.879Z,2.87
2022-09-11T06:17:57.244Z,2.50
2022-09-11T06:20:23.669Z,2.27
2022-09-11T06:22:51.040Z,2.30
2022-09-11T06:25:17.479Z,2.60
2022-09-11T06:27:44.005Z,2.07
2022-09-11T06:30:10.850Z,2.13
2022-09-11T06:32:37.288Z,2.40
2022-09-11T06:35:04.167Z,2.03
2022-09-11T06:37:30.573Z,1.60
2022-09-11T06:39:57.014Z,1.90
2022-09-11T06:42:23.571Z,2.17
2022-09-11T06:44:51.814Z,1.97
2022-09-11T06:47:18.281Z,1.90
2022-09-11T06:49:44.688Z,1.70
2022-09-11T06:52:11.092Z,1.87
2022-09-11T06:54:37.538Z,1.80
2022-09-11T06:57:04.035Z,1.70
2022-09-11T06:59:31.510Z,1.77
2022-09-11T07:01:58.133Z,1.50
2022-09-11T07:04:24.656Z,1.70
2022-09-11T07:06:51.207Z,1.90
2022-09-11T07:09:17.948Z,2.07
2022-09-11T07:11:46.801Z,1.70
2022-09-11T07:14:13.244Z,1.90
2022-09-11T07:16:39.832Z,1.60
2022-09-11T07:19:07.697Z,1.53
2022-09-11T07:21:37.167Z,1.67
2022-09-11T07:24:04.240Z,1.30
2022-09-11T07:26:30.784Z,1.90
2022-09-11T07:28:58.470Z,1.83
2022-09-11T07:31:27.118Z,1.63
2022-09-11T07:33:53.538Z,1.80
2022-09-11T07:36:20.947Z,1.50
2022-09-11T07:38:48.344Z,1.40
2022-09-11T07:41:16.810Z,1.50
2022-09-11T07:43:46.808Z,1.57
2022-09-11T07:46:31.320Z,1.69
2022-09-11T07:48:58.627Z,1.20
2022-09-11T07:51:26.880Z,1.20
2022-09-11T07:53:54.433Z,1.13
2022-09-11T07:56:23.641Z,1.10
2022-09-11T07:58:50.737Z,1.30
2022-09-11T08:01:18.045Z,1.27
2022-09-11T08:03:44.704Z,1.10
2022-09-11T08:06:19.007Z,1.10
2022-09-11T08:08:51.549Z,1.30
2022-09-11T08:11:18.103Z,1.10
2022-09-11T08:13:47.615Z,1.10
2022-09-11T08:16:14.067Z,0.90
2022-09-11T08:18:41.804Z,0.93
2022-09-11T08:21:12.882Z,1.10
2022-09-11T08:23:43.401Z,1.13
2022-09-11T08:26:11.505Z,1.10
2022-09-11T08:28:38.479Z,0.90
2022-09-11T08:31:05.665Z,0.90
2022-09-11T08:33:35.567Z,1.00
2022-09-11T08:36:03.618Z,1.10
2022-09-11T08:38:30.455Z,1.27
2022-09-11T08:40:58.980Z,1.63
2022-09-11T08:43:32.375Z,1.17
2022-09-11T08:46:01.736Z,0.90
2022-09-11T08:48:39.631Z,0.97
2022-09-11T08:51:06.183Z,0.98
2022-09-11T08:53:33.435Z,1.05
2022-09-11T08:56:03.211Z,0.80
2022-09-11T08:58:29.628Z,0.75
2022-09-11T09:01:02.268Z,1.42
2022-09-11T09:03:35.031Z,1.50
2022-09-11T09:06:10.596Z,1.00
2022-09-11T09:08:55.656Z,0.60
2022-09-11T09:11:40.940Z,0.63
2022-09-11T09:14:07.375Z,1.15
2022-09-11T09:16:35.076Z,0.95
2022-09-11T09:19:10.138Z,1.03
2022-09-11T09:21:40.541Z,1.05
2022-09-11T09:24:19.279Z,0.90
2022-09-11T09:26:50.480Z,1.33
2022-09-11T09:29:20.102Z,1.15
2022-09-11T09:31:48.009Z,1.02
2022-09-11T09:34:19.839Z,0.80
2022-09-11T09:36:49.399Z,0.80
2022-09-11T09:39:17.435Z,0.90
2022-09-11T09:42:02.534Z,0.80
2022-09-11T09:44:28.987Z,0.90
2022-09-11T09:46:59.435Z,0.77
2022-09-11T09:49:33.809Z,0.98
2022-09-11T09:52:05.433Z,1.00
2022-09-11T09:54:34.051Z,0.80
2022-09-11T09:57:02.558Z,1.02
2022-09-11T09:59:34.527Z,1.30
2022-09-11T10:02:01.137Z,1.13
2022-09-11T10:04:28.212Z,0.90
2022-09-11T10:07:05.870Z,0.90
2022-09-11T10:09:33.104Z,0.90
2022-09-11T10:12:02.699Z,1.00
2022-09-11T10:17:40.590Z,0.90
2022-09-11T10:20:15.969Z,1.02
2022-09-11T10:22:42.513Z,0.88
2022-09-11T10:25:13.920Z,1.00
2022-09-11T10:27:43.721Z,0.90
2022-09-11T10:30:28.832Z,0.73
2022-09-11T10:32:58.999Z,0.80
2022-09-11T10:35:29.553Z,0.98
2022-09-11T10:38:00.754Z,1.20
2022-09-11T10:40:27.237Z,0.70
2022-09-11T10:42:54.510Z,1.23
2022-09-11T10:45:22.497Z,1.25
2022-09-11T10:47:48.962Z,1.00
2022-09-11T10:50:18.158Z,1.10
2022-09-11T10:52:53.683Z,0.82
2022-09-11T10:55:20.798Z,1.00
2022-09-11T10:57:48.268Z,0.60
2022-09-11T11:00:23.855Z,0.65
2022-09-11T11:02:58.577Z,0.90
2022-09-11T11:05:27.921Z,0.80
2022-09-11T11:08:06.634Z,0.95
2022-09-11T11:10:48.644Z,0.90
2022-09-11T11:13:18.211Z,0.93
2022-09-11T11:15:50.919Z,1.00
2022-09-11T11:18:22.626Z,0.98
2022-09-11T11:21:03.812Z,0.80
2022-09-11T11:23:30.973Z,1.17
2022-09-11T11:26:29.983Z,0.80
2022-09-11T11:29:09.092Z,0.93
2022-09-11T11:31:55.714Z,1.10
2022-09-11T11:34:22.110Z,0.70
2022-09-11T11:36:56.009Z,1.00
2022-09-11T11:39:27.143Z,0.70
2022-09-11T11:42:03.929Z,0.75
2022-09-11T11:44:48.591Z,1.05
2022-09-11T11:47:16.684Z,0.60
2022-09-11T11:49:43.106Z,0.80
2022-09-11T11:52:25.894Z,0.75
2022-09-11T11:55:01.151Z,0.98
2022-09-11T11:57:31.213Z,1.08
2022-09-11T12:00:09.785Z,0.65
2022-09-11T12:02:54.973Z,0.80
2022-09-11T12:05:41.636Z,0.70
2022-09-11T12:08:13.235Z,0.85
2022-09-11T12:10:41.282Z,1.00
2022-09-11T12:13:12.615Z,0.75
2022-09-11T12:15:39.393Z,0.88
2022-09-11T12:18:11.944Z,0.95
2022-09-11T12:20:39.196Z,0.90
2022-09-11T12:23:06.612Z,0.70
2022-09-11T12:25:34.334Z,0.82
2022-09-11T12:28:20.137Z,0.90
2022-09-11T12:30:58.110Z,0.77
2022-09-11T12:33:43.523Z,0.73
2022-09-11T12:36:17.625Z,0.80
2022-09-11T12:39:07.445Z,0.80
2022-09-11T12:41:34.970Z,0.80
2022-09-11T12:44:03.008Z,0.70
2022-09-11T12:46:29.414Z,0.93
2022-09-11T12:49:20.955Z,0.88
2022-09-11T12:51:54.426Z,0.60
2022-09-11T12:54:23.987Z,0.50
2022-09-11T12:56:52.601Z,0.60
2022-09-11T12:59:45.146Z,0.55
2022-09-11T13:02:31.851Z,0.60
2022-09-11T13:04:58.318Z,0.70
2022-09-11T13:07:31.647Z,0.90
2022-09-11T13:10:02.274Z,0.50
2022-09-11T13:12:28.671Z,0.85
2022-09-11T13:15:01.279Z,0.70
2022-09-11T13:17:32.489Z,0.70
2022-09-11T13:20:04.776Z,0.90
2022-09-11T13:22:34.389Z,0.70
2022-09-11T13:25:05.034Z,0.93
2022-09-11T13:27:31.539Z,0.80
2022-09-11T13:30:00.571Z,0.57
2022-09-11T13:32:27.344Z,0.82
2022-09-11T13:34:58.763Z,0.63
2022-09-11T13:37:33.982Z,0.75
2022-09-11T13:40:00.936Z,0.70
2022-09-11T13:42:28.468Z,0.63
2022-09-11T13:44:56.929Z,0.60
2022-09-11T13:47:24.426Z,0.60
2022-09-11T13:49:53.319Z,0.85
2022-09-11T13:52:22.424Z,0.88
2022-09-11T13:54:50.562Z,1.02
2022-09-11T13:57:18.633Z,1.00
2022-09-11T13:59:46.313Z,0.80
2022-09-11T14:02:31.341Z,0.73
2022-09-11T14:05:00.563Z,0.90
2022-09-11T14:07:27.461Z,0.65
2022-09-11T14:10:02.422Z,0.90
2022-09-11T14:12:29.208Z,0.80
2022-09-11T14:14:57.253Z,0.70
2022-09-11T14:17:23.889Z,0.80
2022-09-11T14:19:52.448Z,0.90
2022-09-11T14:22:24.852Z,0.93
2022-09-11T14:24:55.111Z,0.98
2022-09-11T14:27:30.689Z,0.70
2022-09-11T14:29:57.585Z,0.93
2022-09-11T14:32:37.962Z,0.75
2022-09-11T14:35:06.610Z,0.93
2022-09-11T14:37:34.996Z,0.85
2022-09-11T14:40:04.723Z,0.77
2022-09-11T14:42:31.981Z,1.17
2022-09-11T14:44:58.443Z,1.02
2022-09-11T14:47:26.184Z,0.80
2022-09-11T14:49:56.095Z,0.93
2022-09-11T14:52:23.292Z,1.10
2022-09-11T14:54:49.766Z,0.63
2022-09-11T14:57:21.147Z,0.90
2022-09-11T14:59:47.690Z,0.95
2022-09-11T15:02:16.681Z,1.00
2022-09-11T15:04:43.197Z,1.15
2022-09-11T15:07:10.915Z,1.13
2022-09-11T15:09:40.095Z,1.00
2022-09-11T15:12:07.349Z,0.93
2022-09-11T15:14:54.928Z,2.15
2022-09-11T15:17:20.462Z,1.13
2022-09-11T15:19:47.775Z,0.88
2022-09-11T15:22:14.252Z,1.00
2022-09-11T15:24:41.120Z,1.17
2022-09-11T15:27:10.297Z,1.10
2022-09-11T15:29:39.476Z,0.88
2022-09-11T15:32:07.584Z,0.80
2022-09-11T15:34:34.505Z,0.95
2022-09-11T15:37:00.957Z,1.00
2022-09-11T15:39:28.086Z,0.90
2022-09-11T15:41:57.739Z,1.02
2022-09-11T15:44:25.408Z,1.20
2022-09-11T15:46:52.740Z,1.10
2022-09-11T15:49:21.702Z,1.05
2022-09-11T15:51:48.588Z,1.10
2022-09-11T15:54:15.844Z,1.25
2022-09-11T15:56:42.996Z,1.20
2022-09-11T15:59:11.253Z,1.20
2022-09-11T16:01:38.021Z,1.20
2022-09-11T16:04:06.002Z,1.35
2022-09-11T16:06:34.366Z,1.90
2022-09-11T16:09:04.705Z,0.90
2022-09-11T16:11:31.864Z,1.38
2022-09-11T16:13:59.046Z,1.38
2022-09-11T16:16:25.888Z,1.33
2022-09-11T16:18:52.860Z,1.50
2022-09-11T16:21:20.016Z,1.33
2022-09-11T16:23:52.713Z,1.23
2022-09-11T16:26:21.222Z,1.10
2022-09-11T16:28:48.278Z,3.20
2022-09-11T16:31:15.188Z,1.43
2022-09-11T16:33:47.927Z,1.07
2022-09-11T16:36:17.482Z,1.13
2022-09-11T16:38:44.244Z,1.10
2022-09-11T16:41:12.628Z,0.80
2022-09-11T16:43:40.355Z,0.80
2022-09-11T16:46:07.370Z,1.07
2022-09-11T16:48:34.293Z,0.90
2022-09-11T16:51:00.835Z,1.07
2022-09-11T16:53:28.821Z,1.17
2022-09-11T16:55:55.531Z,1.13
2022-09-11T16:58:22.415Z,1.27
2022-09-11T17:00:49.271Z,1.07
2022-09-11T17:03:17.044Z,1.07
2022-09-11T17:05:47.102Z,0.87
2022-09-11T17:08:13.638Z,1.43
2022-09-11T17:10:44.299Z,1.40
2022-09-11T17:13:11.234Z,0.80
2022-09-11T17:15:37.762Z,0.83
2022-09-11T17:18:04.635Z,1.20
2022-09-11T17:20:31.065Z,1.00
2022-09-11T17:22:58.281Z,1.10
2022-09-11T17:25:25.872Z,1.27
2022-09-11T17:27:52.416Z,1.40
2022-09-11T17:30:19.562Z,0.80
2022-09-11T17:32:46.037Z,0.80
2022-09-11T17:35:13.201Z,3.43
2022-09-11T17:37:39.742Z,3.43
2022-09-11T17:40:07.181Z,5.40
2022-09-11T17:42:33.778Z,2.20
2022-09-11T17:45:00.783Z,1.80
2022-09-11T17:47:31.602Z,1.47
2022-09-11T17:49:58.034Z,1.00
2022-09-11T17:52:24.510Z,1.10
2022-09-11T17:54:50.941Z,0.60
2022-09-11T17:57:17.469Z,1.00
2022-09-11T17:59:44.246Z,1.00
2022-09-11T18:02:18.225Z,0.80
2022-09-11T18:04:44.807Z,0.67
2022-09-11T18:07:11.279Z,0.83
2022-09-11T18:09:37.891Z,0.80
2022-09-11T18:12:04.375Z,1.00
2022-09-11T18:14:31.255Z,1.10
2022-09-11T18:16:57.705Z,0.73
2022-09-11T18:19:24.357Z,0.60
2022-09-11T18:21:50.895Z,0.80
2022-09-11T18:24:20.075Z,0.90
2022-09-11T18:26:58.606Z,0.70
2022-09-11T18:29:27.111Z,0.63
2022-09-11T18:31:54.051Z,0.57
2022-09-11T18:34:22.111Z,0.80
2022-09-11T18:36:48.629Z,0.80
2022-09-11T18:39:16.791Z,0.70
2022-09-11T18:41:44.395Z,0.43
2022-09-11T18:44:16.209Z,0.70
2022-09-11T18:46:46.182Z,0.70
2022-09-11T18:49:16.079Z,0.87
2022-09-11T18:51:42.607Z,0.80
2022-09-11T18:54:14.874Z,0.97
2022-09-11T18:56:42.144Z,1.00
2022-09-11T18:59:09.296Z,1.00
2022-09-11T19:01:36.531Z,0.70
2022-09-11T19:04:07.037Z,0.70
2022-09-11T19:06:34.342Z,0.63
2022-09-11T19:09:01.766Z,0.90
2022-09-11T19:11:29.926Z,1.00
2022-09-11T19:14:01.972Z,0.70
2022-09-11T19:16:28.486Z,0.93
2022-09-11T19:18:55.303Z,1.07
2022-09-11T19:21:23.169Z,0.70
2022-09-11T19:23:50.803Z,0.80
2022-09-11T19:26:22.074Z,0.70
2022-09-11T19:28:49.585Z,0.70
2022-09-11T19:31:18.126Z,0.63
2022-09-11T19:33:44.663Z,0.70
2022-09-11T19:36:12.397Z,1.00
2022-09-11T19:38:42.757Z,0.90
2022-09-11T19:41:09.758Z,0.80
2022-09-11T19:43:37.079Z,0.80
2022-09-11T19:46:04.680Z,0.80
2022-09-11T19:48:31.290Z,0.70
2022-09-11T19:50:58.002Z,0.70
2022-09-11T19:53:24.428Z,0.60
2022-09-11T19:55:54.547Z,0.57
2022-09-11T19:58:23.987Z,1.00
2022-09-11T20:00:51.162Z,0.93
2022-09-11T20:03:17.943Z,0.70
2022-09-11T20:05:44.963Z,0.70
2022-09-11T20:08:16.198Z,0.70
2022-09-11T20:10:45.429Z,0.60
2022-09-11T20:13:11.858Z,0.60
2022-09-11T20:15:39.107Z,0.60
2022-09-11T20:18:07.484Z,0.50
2022-09-11T20:20:37.121Z,0.60
2022-09-11T20:23:04.412Z,0.63
2022-09-11T20:25:31.008Z,0.70
2022-09-11T20:28:00.452Z,0.80
2022-09-11T20:30:27.060Z,0.67
2022-09-11T20:32:53.552Z,0.60
2022-09-11T20:35:19.966Z,0.80
2022-09-11T20:37:46.403Z,0.60
2022-09-11T20:40:12.881Z,1.00
2022-09-11T20:42:39.801Z,0.70
2022-09-11T20:45:06.547Z,0.80
2022-09-11T20:47:33.024Z,0.57
2022-09-11T20:50:00.611Z,0.80
2022-09-11T20:52:27.374Z,0.87
2022-09-11T20:54:54.439Z,0.70
2022-09-11T20:57:21.076Z,0.70
2022-09-11T20:59:47.653Z,0.70
2022-09-11T21:02:14.840Z,0.93
2022-09-11T21:04:41.574Z,0.80
2022-09-11T21:07:08.012Z,0.80
2022-09-11T21:09:34.605Z,1.00
2022-09-11T21:12:01.083Z,0.57
2022-09-11T21:14:27.557Z,0.70
2022-09-11T21:16:54.023Z,0.70
2022-09-11T21:19:20.474Z,0.80
2022-09-11T21:21:46.938Z,0.77
2022-09-11T21:24:13.860Z,0.80
2022-09-11T21:26:40.390Z,0.90
2022-09-11T21:29:07.877Z,0.80
2022-09-11T21:31:35.231Z,0.73
2022-09-11T21:34:02.202Z,0.70
2022-09-11T21:36:29.016Z,0.80
2022-09-11T21:38:55.668Z,0.80
2022-09-11T21:41:22.097Z,0.80
2022-09-11T21:43:48.661Z,0.70
2022-09-11T21:46:15.189Z,0.80
2022-09-11T21:48:41.668Z,0.90
2022-09-11T21:51:26.241Z,0.83
2022-09-11T21:53:55.772Z,0.70
2022-09-11T21:56:26.656Z,0.70
2022-09-11T21:58:53.274Z,0.83
2022-09-11T22:01:20.355Z,0.90
2022-09-11T22:03:47.043Z,0.80
2022-09-11T22:06:13.580Z,0.70
2022-09-11T22:08:41.205Z,0.73
2022-09-11T22:11:07.745Z,0.80
2022-09-11T22:13:37.174Z,0.60
2022-09-11T22:16:05.508Z,0.80
2022-09-11T22:18:32.104Z,0.70
2022-09-11T22:21:01.144Z,0.80
